sensor_id;sensor_type;location;lat;lon;timestamp;P1;durP1;ratioP1;P2;durP2;ratioP2
73733;SDS011;62039;50.000;9.064;2023-04-25T00:01:28;2.57;;;2.37;;
73733;SDS011;62039;50.000;9.064;2023-04-25T00:03:55;2.73;;;2.50;;
73733;SDS011;62039;50.000;9.064;2023-04-25T00:06:23;2.73;;;2.40;;
73733;SDS011;62039;50.000;9.064;2023-04-25T00:08:50;2.50;;;2.30;;
73733;SDS011;62039;50.000;9.064;2023-04-25T00:11:17;2.10;;;1.90;;
73733;SDS011;62039;50.000;9.064;2023-04-25T00:13:46;2.27;;;2.07;;
73733;SDS011;62039;50.000;9.064;2023-04-25T00:16:13;2.00;;;1.90;;
73733;SDS011;62039;50.000;9.064;2023-04-25T00:18:41;2.73;;;2.53;;
73733;SDS011;62039;50.000;9.064;2023-04-25T00:21:08;2.47;;;2.27;;
73733;SDS011;62039;50.000;9.064;2023-04-25T00:23:35;2.50;;;2.30;;
73733;SDS011;62039;50.000;9.064;2023-04-25T00:26:02;2.43;;;2.23;;
73733;SDS011;62039;50.000;9.064;2023-04-25T00:28:29;2.30;;;2.10;;
73733;SDS011;62039;50.000;9.064;2023-04-25T00:30:59;2.43;;;2.23;;
73733;SDS011;62039;50.000;9.064;2023-04-25T00:33:26;2.50;;;2.30;;
73733;SDS011;62039;50.000;9.064;2023-04-25T00:35:53;2.60;;;2.40;;
73733;SDS011;62039;50.000;9.064;2023-04-25T00:38:20;2.23;;;2.03;;
73733;SDS011;62039;50.000;9.064;2023-04-25T00:40:47;2.73;;;2.20;;
73733;SDS011;62039;50.000;9.064;2023-04-25T00:43:14;2.10;;;2.00;;
73733;SDS011;62039;50.000;9.064;2023-04-25T00:45:41;2.70;;;2.50;;
73733;SDS011;62039;50.000;9.064;2023-04-25T00:48:12;2.50;;;2.30;;
73733;SDS011;62039;50.000;9.064;2023-04-25T00:50:40;2.47;;;2.27;;
73733;SDS011;62039;50.000;9.064;2023-04-25T00:53:08;2.37;;;2.17;;
73733;SDS011;62039;50.000;9.064;2023-04-25T00:55:35;2.40;;;2.20;;
73733;SDS011;62039;50.000;9.064;2023-04-25T00:58:02;2.00;;;1.80;;
73733;SDS011;62039;50.000;9.064;2023-04-25T01:00:28;2.47;;;2.03;;
73733;SDS011;62039;50.000;9.064;2023-04-25T01:02:56;2.20;;;2.00;;
73733;SDS011;62039;50.000;9.064;2023-04-25T01:05:25;2.40;;;2.20;;
73733;SDS011;62039;50.000;9.064;2023-04-25T01:07:52;2.20;;;2.00;;
73733;SDS011;62039;50.000;9.064;2023-04-25T01:10:19;2.20;;;2.10;;
73733;SDS011;62039;50.000;9.064;2023-04-25T01:12:46;2.20;;;2.00;;
73733;SDS011;62039;50.000;9.064;2023-04-25T01:15:14;2.37;;;1.97;;
73733;SDS011;62039;50.000;9.064;2023-04-25T01:17:40;1.70;;;1.60;;
73733;SDS011;62039;50.000;9.064;2023-04-25T01:20:08;2.13;;;1.83;;
73733;SDS011;62039;50.000;9.064;2023-04-25T01:22:39;2.13;;;1.93;;
73733;SDS011;62039;50.000;9.064;2023-04-25T01:25:07;1.77;;;1.67;;
73733;SDS011;62039;50.000;9.064;2023-04-25T01:27:35;2.53;;;1.93;;
73733;SDS011;62039;50.000;9.064;2023-04-25T01:30:02;1.80;;;1.70;;
73733;SDS011;62039;50.000;9.064;2023-04-25T01:32:30;2.00;;;1.80;;
73733;SDS011;62039;50.000;9.064;2023-04-25T01:34:57;2.00;;;1.90;;
73733;SDS011;62039;50.000;9.064;2023-04-25T01:37:24;2.30;;;2.10;;
73733;SDS011;62039;50.000;9.064;2023-04-25T01:39:54;2.10;;;1.90;;
73733;SDS011;62039;50.000;9.064;2023-04-25T01:42:21;1.90;;;1.70;;
73733;SDS011;62039;50.000;9.064;2023-04-25T01:44:48;2.20;;;1.80;;
73733;SDS011;62039;50.000;9.064;2023-04-25T01:47:15;1.60;;;1.50;;
73733;SDS011;62039;50.000;9.064;2023-04-25T01:49:42;2.43;;;1.87;;
73733;SDS011;62039;50.000;9.064;2023-04-25T01:52:08;1.80;;;1.70;;
73733;SDS011;62039;50.000;9.064;2023-04-25T01:54:35;1.90;;;1.80;;
73733;SDS011;62039;50.000;9.064;2023-04-25T01:57:05;2.20;;;1.80;;
73733;SDS011;62039;50.000;9.064;2023-04-25T01:59:32;2.40;;;2.20;;
73733;SDS011;62039;50.000;9.064;2023-04-25T02:01:59;2.70;;;1.70;;
73733;SDS011;62039;50.000;9.064;2023-04-25T02:04:26;2.27;;;2.07;;
73733;SDS011;62039;50.000;9.064;2023-04-25T02:06:53;2.20;;;2.00;;
73733;SDS011;62039;50.000;9.064;2023-04-25T02:09:21;2.33;;;2.13;;
73733;SDS011;62039;50.000;9.064;2023-04-25T02:11:48;2.63;;;2.27;;
73733;SDS011;62039;50.000;9.064;2023-04-25T02:14:17;3.07;;;2.20;;
73733;SDS011;62039;50.000;9.064;2023-04-25T02:16:44;1.83;;;1.73;;
73733;SDS011;62039;50.000;9.064;2023-04-25T02:19:11;2.27;;;2.07;;
73733;SDS011;62039;50.000;9.064;2023-04-25T02:21:38;2.17;;;1.97;;
73733;SDS011;62039;50.000;9.064;2023-04-25T02:24:06;2.20;;;2.00;;
73733;SDS011;62039;50.000;9.064;2023-04-25T02:26:33;2.27;;;2.17;;
73733;SDS011;62039;50.000;9.064;2023-04-25T02:29:00;2.67;;;2.47;;
73733;SDS011;62039;50.000;9.064;2023-04-25T02:31:30;2.67;;;2.47;;
73733;SDS011;62039;50.000;9.064;2023-04-25T02:33:57;3.07;;;2.47;;
73733;SDS011;62039;50.000;9.064;2023-04-25T02:36:24;3.27;;;2.20;;
73733;SDS011;62039;50.000;9.064;2023-04-25T02:38:51;2.60;;;2.20;;
73733;SDS011;62039;50.000;9.064;2023-04-25T02:41:18;3.00;;;2.20;;
73733;SDS011;62039;50.000;9.064;2023-04-25T02:43:45;2.17;;;1.97;;
73733;SDS011;62039;50.000;9.064;2023-04-25T02:46:12;2.40;;;2.17;;
73733;SDS011;62039;50.000;9.064;2023-04-25T02:48:41;2.80;;;2.20;;
73733;SDS011;62039;50.000;9.064;2023-04-25T02:51:08;2.40;;;2.20;;
73733;SDS011;62039;50.000;9.064;2023-04-25T02:53:35;2.50;;;2.30;;
73733;SDS011;62039;50.000;9.064;2023-04-25T02:56:02;2.80;;;2.60;;
73733;SDS011;62039;50.000;9.064;2023-04-25T02:58:29;2.40;;;2.20;;
73733;SDS011;62039;50.000;9.064;2023-04-25T03:00:56;2.63;;;2.43;;
73733;SDS011;62039;50.000;9.064;2023-04-25T03:03:23;2.57;;;2.37;;
73733;SDS011;62039;50.000;9.064;2023-04-25T03:05:53;2.40;;;2.20;;
73733;SDS011;62039;50.000;9.064;2023-04-25T03:08:20;2.93;;;2.73;;
73733;SDS011;62039;50.000;9.064;2023-04-25T03:10:47;3.60;;;2.37;;
73733;SDS011;62039;50.000;9.064;2023-04-25T03:13:13;3.00;;;2.73;;
73733;SDS011;62039;50.000;9.064;2023-04-25T03:15:40;3.17;;;2.80;;
73733;SDS011;62039;50.000;9.064;2023-04-25T03:18:07;2.70;;;2.50;;
73733;SDS011;62039;50.000;9.064;2023-04-25T03:20:34;2.70;;;2.50;;
73733;SDS011;62039;50.000;9.064;2023-04-25T03:23:04;2.67;;;2.43;;
73733;SDS011;62039;50.000;9.064;2023-04-25T03:25:31;2.43;;;2.23;;
73733;SDS011;62039;50.000;9.064;2023-04-25T03:27:58;2.77;;;2.57;;
73733;SDS011;62039;50.000;9.064;2023-04-25T03:30:24;3.20;;;2.90;;
73733;SDS011;62039;50.000;9.064;2023-04-25T03:32:51;2.90;;;2.40;;
73733;SDS011;62039;50.000;9.064;2023-04-25T03:35:18;2.93;;;2.63;;
73733;SDS011;62039;50.000;9.064;2023-04-25T03:37:45;2.83;;;2.63;;
73733;SDS011;62039;50.000;9.064;2023-04-25T03:40:15;2.90;;;2.70;;
73733;SDS011;62039;50.000;9.064;2023-04-25T03:42:42;3.53;;;2.90;;
73733;SDS011;62039;50.000;9.064;2023-04-25T03:45:11;3.07;;;2.67;;
73733;SDS011;62039;50.000;9.064;2023-04-25T03:47:38;2.90;;;2.60;;
73733;SDS011;62039;50.000;9.064;2023-04-25T03:50:05;2.50;;;2.30;;
73733;SDS011;62039;50.000;9.064;2023-04-25T03:52:33;2.57;;;2.37;;
73733;SDS011;62039;50.000;9.064;2023-04-25T03:55:00;3.30;;;3.00;;
73733;SDS011;62039;50.000;9.064;2023-04-25T03:57:29;3.40;;;3.00;;
73733;SDS011;62039;50.000;9.064;2023-04-25T03:59:56;2.97;;;2.77;;
73733;SDS011;62039;50.000;9.064;2023-04-25T04:02:23;3.40;;;3.10;;
73733;SDS011;62039;50.000;9.064;2023-04-25T04:04:50;2.87;;;2.67;;
73733;SDS011;62039;50.000;9.064;2023-04-25T04:07:18;3.30;;;2.83;;
73733;SDS011;62039;50.000;9.064;2023-04-25T04:09:45;3.00;;;2.80;;
73733;SDS011;62039;50.000;9.064;2023-04-25T04:12:11;2.93;;;2.70;;
73733;SDS011;62039;50.000;9.064;2023-04-25T04:14:41;3.00;;;2.70;;
73733;SDS011;62039;50.000;9.064;2023-04-25T04:17:08;3.07;;;2.77;;
73733;SDS011;62039;50.000;9.064;2023-04-25T04:19:35;2.63;;;2.43;;
73733;SDS011;62039;50.000;9.064;2023-04-25T04:22:02;3.07;;;2.73;;
73733;SDS011;62039;50.000;9.064;2023-04-25T04:24:29;3.80;;;3.40;;
73733;SDS011;62039;50.000;9.064;2023-04-25T04:26:56;3.73;;;3.43;;
73733;SDS011;62039;50.000;9.064;2023-04-25T04:29:23;4.07;;;3.67;;
73733;SDS011;62039;50.000;9.064;2023-04-25T04:31:52;3.70;;;3.37;;
73733;SDS011;62039;50.000;9.064;2023-04-25T04:34:19;3.63;;;3.30;;
73733;SDS011;62039;50.000;9.064;2023-04-25T04:36:46;3.80;;;3.50;;
73733;SDS011;62039;50.000;9.064;2023-04-25T04:39:13;3.87;;;3.57;;
73733;SDS011;62039;50.000;9.064;2023-04-25T04:41:40;4.43;;;3.60;;
73733;SDS011;62039;50.000;9.064;2023-04-25T04:44:07;3.60;;;3.17;;
73733;SDS011;62039;50.000;9.064;2023-04-25T04:46:34;3.63;;;3.33;;
73733;SDS011;62039;50.000;9.064;2023-04-25T04:49:04;3.77;;;3.47;;
73733;SDS011;62039;50.000;9.064;2023-04-25T04:51:31;4.03;;;3.63;;
73733;SDS011;62039;50.000;9.064;2023-04-25T04:53:58;4.07;;;3.67;;
73733;SDS011;62039;50.000;9.064;2023-04-25T04:56:25;4.00;;;3.70;;
73733;SDS011;62039;50.000;9.064;2023-04-25T04:58:52;4.17;;;3.80;;
73733;SDS011;62039;50.000;9.064;2023-04-25T05:01:19;5.13;;;3.60;;
73733;SDS011;62039;50.000;9.064;2023-04-25T05:03:46;4.30;;;3.40;;
73733;SDS011;62039;50.000;9.064;2023-04-25T05:06:16;4.63;;;3.77;;
73733;SDS011;62039;50.000;9.064;2023-04-25T05:08:43;4.03;;;3.63;;
73733;SDS011;62039;50.000;9.064;2023-04-25T05:11:10;5.73;;;3.77;;
73733;SDS011;62039;50.000;9.064;2023-04-25T05:13:36;4.13;;;3.67;;
73733;SDS011;62039;50.000;9.064;2023-04-25T05:16:03;5.27;;;4.10;;
73733;SDS011;62039;50.000;9.064;2023-04-25T05:18:30;4.97;;;4.43;;
73733;SDS011;62039;50.000;9.064;2023-04-25T05:20:57;5.97;;;4.17;;
73733;SDS011;62039;50.000;9.064;2023-04-25T05:23:27;8.17;;;4.53;;
73733;SDS011;62039;50.000;9.064;2023-04-25T05:25:54;5.67;;;4.07;;
73733;SDS011;62039;50.000;9.064;2023-04-25T05:28:21;5.07;;;4.17;;
73733;SDS011;62039;50.000;9.064;2023-04-25T05:30:48;7.00;;;4.47;;
73733;SDS011;62039;50.000;9.064;2023-04-25T05:33:15;7.47;;;5.43;;
73733;SDS011;62039;50.000;9.064;2023-04-25T05:35:42;9.63;;;5.90;;
73733;SDS011;62039;50.000;9.064;2023-04-25T05:38:09;9.23;;;6.17;;
73733;SDS011;62039;50.000;9.064;2023-04-25T05:40:38;7.43;;;4.87;;
73733;SDS011;62039;50.000;9.064;2023-04-25T05:43:05;5.90;;;4.47;;
73733;SDS011;62039;50.000;9.064;2023-04-25T05:45:32;6.80;;;3.70;;
73733;SDS011;62039;50.000;9.064;2023-04-25T05:47:59;5.23;;;3.50;;
73733;SDS011;62039;50.000;9.064;2023-04-25T05:50:26;5.20;;;3.47;;
73733;SDS011;62039;50.000;9.064;2023-04-25T05:52:53;5.83;;;3.30;;
73733;SDS011;62039;50.000;9.064;2023-04-25T05:55:20;3.37;;;2.93;;
73733;SDS011;62039;50.000;9.064;2023-04-25T05:57:49;5.27;;;3.17;;
73733;SDS011;62039;50.000;9.064;2023-04-25T06:00:17;5.43;;;3.47;;
73733;SDS011;62039;50.000;9.064;2023-04-25T06:02:44;4.40;;;2.80;;
73733;SDS011;62039;50.000;9.064;2023-04-25T06:05:11;5.70;;;3.17;;
73733;SDS011;62039;50.000;9.064;2023-04-25T06:07:38;4.53;;;3.30;;
73733;SDS011;62039;50.000;9.064;2023-04-25T06:10:06;6.40;;;3.30;;
73733;SDS011;62039;50.000;9.064;2023-04-25T06:12:34;5.30;;;3.00;;
73733;SDS011;62039;50.000;9.064;2023-04-25T06:15:03;4.27;;;2.73;;
73733;SDS011;62039;50.000;9.064;2023-04-25T06:17:49;3.70;;;2.50;;
73733;SDS011;62039;50.000;9.064;2023-04-25T06:20:16;5.73;;;3.00;;
73733;SDS011;62039;50.000;9.064;2023-04-25T06:22:43;2.93;;;2.27;;
73733;SDS011;62039;50.000;9.064;2023-04-25T06:25:10;4.37;;;2.70;;
73733;SDS011;62039;50.000;9.064;2023-04-25T06:27:37;2.63;;;2.20;;
73733;SDS011;62039;50.000;9.064;2023-04-25T06:30:07;4.37;;;2.57;;
73733;SDS011;62039;50.000;9.064;2023-04-25T06:32:35;3.57;;;2.73;;
73733;SDS011;62039;50.000;9.064;2023-04-25T06:35:02;4.40;;;2.50;;
73733;SDS011;62039;50.000;9.064;2023-04-25T06:37:29;4.47;;;2.70;;
73733;SDS011;62039;50.000;9.064;2023-04-25T06:39:57;5.77;;;2.90;;
73733;SDS011;62039;50.000;9.064;2023-04-25T06:42:24;5.00;;;3.07;;
73733;SDS011;62039;50.000;9.064;2023-04-25T06:44:51;5.03;;;3.40;;
73733;SDS011;62039;50.000;9.064;2023-04-25T06:47:20;4.63;;;2.97;;
73733;SDS011;62039;50.000;9.064;2023-04-25T06:49:47;3.20;;;2.67;;
73733;SDS011;62039;50.000;9.064;2023-04-25T06:52:14;3.73;;;2.87;;
73733;SDS011;62039;50.000;9.064;2023-04-25T06:54:41;3.90;;;2.60;;
73733;SDS011;62039;50.000;9.064;2023-04-25T06:57:08;4.30;;;2.73;;
73733;SDS011;62039;50.000;9.064;2023-04-25T06:59:35;2.83;;;2.17;;
73733;SDS011;62039;50.000;9.064;2023-04-25T07:02:02;3.07;;;2.60;;
73733;SDS011;62039;50.000;9.064;2023-04-25T07:04:31;4.93;;;2.87;;
73733;SDS011;62039;50.000;9.064;2023-04-25T07:06:58;2.63;;;2.33;;
73733;SDS011;62039;50.000;9.064;2023-04-25T07:09:25;2.80;;;2.50;;
73733;SDS011;62039;50.000;9.064;2023-04-25T07:11:52;3.30;;;2.43;;
73733;SDS011;62039;50.000;9.064;2023-04-25T07:14:19;4.13;;;2.50;;
73733;SDS011;62039;50.000;9.064;2023-04-25T07:16:46;3.13;;;2.80;;
73733;SDS011;62039;50.000;9.064;2023-04-25T07:19:13;3.60;;;2.87;;
73733;SDS011;62039;50.000;9.064;2023-04-25T07:21:42;4.37;;;2.50;;
73733;SDS011;62039;50.000;9.064;2023-04-25T07:24:09;2.83;;;2.37;;
73733;SDS011;62039;50.000;9.064;2023-04-25T07:26:36;4.23;;;2.47;;
73733;SDS011;62039;50.000;9.064;2023-04-25T07:29:03;3.50;;;2.53;;
73733;SDS011;62039;50.000;9.064;2023-04-25T07:31:30;3.70;;;2.57;;
73733;SDS011;62039;50.000;9.064;2023-04-25T07:33:57;3.73;;;2.70;;
73733;SDS011;62039;50.000;9.064;2023-04-25T07:36:27;4.77;;;2.93;;
73733;SDS011;62039;50.000;9.064;2023-04-25T07:38:56;4.33;;;2.87;;
73733;SDS011;62039;50.000;9.064;2023-04-25T07:41:23;3.67;;;2.63;;
73733;SDS011;62039;50.000;9.064;2023-04-25T07:43:50;3.97;;;2.80;;
73733;SDS011;62039;50.000;9.064;2023-04-25T07:46:17;3.77;;;2.60;;
73733;SDS011;62039;50.000;9.064;2023-04-25T07:48:44;3.00;;;2.70;;
73733;SDS011;62039;50.000;9.064;2023-04-25T07:51:11;4.03;;;2.57;;
73733;SDS011;62039;50.000;9.064;2023-04-25T07:53:38;3.27;;;2.33;;
73733;SDS011;62039;50.000;9.064;2023-04-25T07:56:08;3.73;;;2.50;;
73733;SDS011;62039;50.000;9.064;2023-04-25T07:58:35;4.43;;;2.97;;
73733;SDS011;62039;50.000;9.064;2023-04-25T08:01:02;3.37;;;2.70;;
73733;SDS011;62039;50.000;9.064;2023-04-25T08:03:29;4.43;;;2.90;;
73733;SDS011;62039;50.000;9.064;2023-04-25T08:05:56;4.40;;;2.73;;
73733;SDS011;62039;50.000;9.064;2023-04-25T08:08:24;4.07;;;2.43;;
73733;SDS011;62039;50.000;9.064;2023-04-25T08:10:51;2.63;;;2.13;;
73733;SDS011;62039;50.000;9.064;2023-04-25T08:13:20;2.20;;;2.00;;
73733;SDS011;62039;50.000;9.064;2023-04-25T08:15:47;3.43;;;2.10;;
73733;SDS011;62039;50.000;9.064;2023-04-25T08:18:14;5.73;;;2.87;;
73733;SDS011;62039;50.000;9.064;2023-04-25T08:20:43;3.03;;;2.20;;
73733;SDS011;62039;50.000;9.064;2023-04-25T08:23:10;4.17;;;3.10;;
73733;SDS011;62039;50.000;9.064;2023-04-25T08:25:37;2.90;;;2.30;;
73733;SDS011;62039;50.000;9.064;2023-04-25T08:28:03;4.43;;;2.67;;
73733;SDS011;62039;50.000;9.064;2023-04-25T08:30:34;3.77;;;2.37;;
73733;SDS011;62039;50.000;9.064;2023-04-25T08:33:03;3.03;;;2.37;;
73733;SDS011;62039;50.000;9.064;2023-04-25T08:35:30;3.03;;;2.17;;
73733;SDS011;62039;50.000;9.064;2023-04-25T08:37:57;3.80;;;2.83;;
73733;SDS011;62039;50.000;9.064;2023-04-25T08:40:24;4.63;;;2.90;;
73733;SDS011;62039;50.000;9.064;2023-04-25T08:42:54;4.53;;;3.07;;
73733;SDS011;62039;50.000;9.064;2023-04-25T08:45:23;3.10;;;2.53;;
73733;SDS011;62039;50.000;9.064;2023-04-25T08:47:53;3.87;;;2.30;;
73733;SDS011;62039;50.000;9.064;2023-04-25T08:50:23;3.60;;;2.33;;
73733;SDS011;62039;50.000;9.064;2023-04-25T08:52:50;3.83;;;2.13;;
73733;SDS011;62039;50.000;9.064;2023-04-25T08:55:20;3.03;;;2.30;;
73733;SDS011;62039;50.000;9.064;2023-04-25T08:57:48;4.70;;;2.63;;
73733;SDS011;62039;50.000;9.064;2023-04-25T09:00:17;4.13;;;2.47;;
73733;SDS011;62039;50.000;9.064;2023-04-25T09:02:45;3.47;;;2.33;;
73733;SDS011;62039;50.000;9.064;2023-04-25T09:05:16;2.97;;;2.40;;
73733;SDS011;62039;50.000;9.064;2023-04-25T09:07:46;3.23;;;2.43;;
73733;SDS011;62039;50.000;9.064;2023-04-25T09:10:16;3.53;;;2.43;;
73733;SDS011;62039;50.000;9.064;2023-04-25T09:12:43;2.97;;;2.10;;
73733;SDS011;62039;50.000;9.064;2023-04-25T09:15:11;3.90;;;2.00;;
73733;SDS011;62039;50.000;9.064;2023-04-25T09:17:46;2.63;;;2.30;;
73733;SDS011;62039;50.000;9.064;2023-04-25T09:20:24;2.60;;;2.20;;
73733;SDS011;62039;50.000;9.064;2023-04-25T09:23:00;2.13;;;1.80;;
73733;SDS011;62039;50.000;9.064;2023-04-25T09:25:27;2.07;;;1.87;;
73733;SDS011;62039;50.000;9.064;2023-04-25T09:28:03;4.80;;;2.20;;
73733;SDS011;62039;50.000;9.064;2023-04-25T09:30:31;3.23;;;2.23;;
73733;SDS011;62039;50.000;9.064;2023-04-25T09:33:03;2.47;;;1.90;;
73733;SDS011;62039;50.000;9.064;2023-04-25T09:35:37;2.00;;;1.80;;
73733;SDS011;62039;50.000;9.064;2023-04-25T09:38:09;2.40;;;2.20;;
73733;SDS011;62039;50.000;9.064;2023-04-25T09:40:40;2.70;;;2.33;;
73733;SDS011;62039;50.000;9.064;2023-04-25T09:43:10;3.60;;;2.20;;
73733;SDS011;62039;50.000;9.064;2023-04-25T09:45:43;3.20;;;2.13;;
73733;SDS011;62039;50.000;9.064;2023-04-25T09:48:10;2.80;;;2.03;;
73733;SDS011;62039;50.000;9.064;2023-04-25T09:50:40;1.87;;;1.77;;
73733;SDS011;62039;50.000;9.064;2023-04-25T09:53:07;3.57;;;2.43;;
73733;SDS011;62039;50.000;9.064;2023-04-25T09:55:34;2.27;;;2.03;;
73733;SDS011;62039;50.000;9.064;2023-04-25T09:58:04;3.23;;;2.17;;
73733;SDS011;62039;50.000;9.064;2023-04-25T10:00:32;2.30;;;2.03;;
73733;SDS011;62039;50.000;9.064;2023-04-25T10:03:00;3.87;;;2.43;;
73733;SDS011;62039;50.000;9.064;2023-04-25T10:05:28;3.33;;;2.63;;
73733;SDS011;62039;50.000;9.064;2023-04-25T10:08:02;2.93;;;2.10;;
73733;SDS011;62039;50.000;9.064;2023-04-25T10:10:29;3.53;;;2.33;;
73733;SDS011;62039;50.000;9.064;2023-04-25T10:12:57;2.57;;;2.00;;
73733;SDS011;62039;50.000;9.064;2023-04-25T10:15:25;2.83;;;2.03;;
73733;SDS011;62039;50.000;9.064;2023-04-25T10:17:52;4.27;;;2.50;;
73733;SDS011;62039;50.000;9.064;2023-04-25T10:20:19;2.43;;;2.13;;
73733;SDS011;62039;50.000;9.064;2023-04-25T10:22:46;4.80;;;2.20;;
73733;SDS011;62039;50.000;9.064;2023-04-25T10:25:16;3.20;;;2.20;;
73733;SDS011;62039;50.000;9.064;2023-04-25T10:27:44;2.93;;;2.40;;
73733;SDS011;62039;50.000;9.064;2023-04-25T10:30:13;2.20;;;2.00;;
73733;SDS011;62039;50.000;9.064;2023-04-25T10:32:41;2.27;;;2.00;;
73733;SDS011;62039;50.000;9.064;2023-04-25T10:35:12;3.70;;;2.00;;
73733;SDS011;62039;50.000;9.064;2023-04-25T10:40:26;2.87;;;2.30;;
73733;SDS011;62039;50.000;9.064;2023-04-25T10:42:53;2.97;;;2.00;;
73733;SDS011;62039;50.000;9.064;2023-04-25T10:45:20;3.67;;;2.20;;
73733;SDS011;62039;50.000;9.064;2023-04-25T10:47:47;2.90;;;2.03;;
73733;SDS011;62039;50.000;9.064;2023-04-25T10:50:16;2.90;;;2.00;;
73733;SDS011;62039;50.000;9.064;2023-04-25T10:52:43;3.20;;;1.97;;
73733;SDS011;62039;50.000;9.064;2023-04-25T10:55:10;3.27;;;2.30;;
73733;SDS011;62039;50.000;9.064;2023-04-25T10:57:40;2.70;;;2.10;;
73733;SDS011;62039;50.000;9.064;2023-04-25T11:00:09;2.60;;;1.77;;
73733;SDS011;62039;50.000;9.064;2023-04-25T11:02:40;1.90;;;1.67;;
73733;SDS011;62039;50.000;9.064;2023-04-25T11:05:08;2.43;;;2.23;;
73733;SDS011;62039;50.000;9.064;2023-04-25T11:07:42;2.53;;;2.23;;
73733;SDS011;62039;50.000;9.064;2023-04-25T11:10:32;2.30;;;2.10;;
73733;SDS011;62039;50.000;9.064;2023-04-25T11:13:02;2.13;;;1.87;;
73733;SDS011;62039;50.000;9.064;2023-04-25T11:15:30;2.50;;;2.17;;
73733;SDS011;62039;50.000;9.064;2023-04-25T11:17:57;2.07;;;1.90;;
73733;SDS011;62039;50.000;9.064;2023-04-25T11:20:25;3.17;;;2.27;;
73733;SDS011;62039;50.000;9.064;2023-04-25T11:22:52;2.63;;;2.43;;
73733;SDS011;62039;50.000;9.064;2023-04-25T11:25:19;4.07;;;2.50;;
73733;SDS011;62039;50.000;9.064;2023-04-25T11:27:49;4.13;;;2.53;;
73733;SDS011;62039;50.000;9.064;2023-04-25T11:30:20;4.00;;;2.40;;
73733;SDS011;62039;50.000;9.064;2023-04-25T11:32:48;2.87;;;2.47;;
73733;SDS011;62039;50.000;9.064;2023-04-25T11:35:15;2.83;;;2.17;;
73733;SDS011;62039;50.000;9.064;2023-04-25T11:37:43;3.33;;;2.80;;
73733;SDS011;62039;50.000;9.064;2023-04-25T11:40:10;2.70;;;2.10;;
73733;SDS011;62039;50.000;9.064;2023-04-25T11:42:38;2.53;;;2.33;;
73733;SDS011;62039;50.000;9.064;2023-04-25T11:45:05;3.80;;;2.30;;
73733;SDS011;62039;50.000;9.064;2023-04-25T11:47:36;3.37;;;2.70;;
73733;SDS011;62039;50.000;9.064;2023-04-25T11:50:04;3.70;;;2.30;;
73733;SDS011;62039;50.000;9.064;2023-04-25T11:52:38;3.50;;;2.20;;
73733;SDS011;62039;50.000;9.064;2023-04-25T11:55:06;2.33;;;2.10;;
73733;SDS011;62039;50.000;9.064;2023-04-25T11:57:37;2.27;;;2.00;;
73733;SDS011;62039;50.000;9.064;2023-04-25T12:00:09;3.03;;;2.37;;
73733;SDS011;62039;50.000;9.064;2023-04-25T12:02:43;3.67;;;1.97;;
73733;SDS011;62039;50.000;9.064;2023-04-25T12:05:11;2.60;;;2.03;;
73733;SDS011;62039;50.000;9.064;2023-04-25T12:07:57;3.03;;;1.90;;
73733;SDS011;62039;50.000;9.064;2023-04-25T12:10:24;2.20;;;1.83;;
73733;SDS011;62039;50.000;9.064;2023-04-25T12:12:51;2.40;;;2.20;;
73733;SDS011;62039;50.000;9.064;2023-04-25T12:15:18;2.43;;;2.10;;
73733;SDS011;62039;50.000;9.064;2023-04-25T12:17:53;3.17;;;1.80;;
73733;SDS011;62039;50.000;9.064;2023-04-25T12:20:21;2.00;;;1.80;;
73733;SDS011;62039;50.000;9.064;2023-04-25T12:22:51;1.93;;;1.33;;
73733;SDS011;62039;50.000;9.064;2023-04-25T12:28:08;2.43;;;1.60;;
73733;SDS011;62039;50.000;9.064;2023-04-25T12:30:52;2.33;;;1.47;;
73733;SDS011;62039;50.000;9.064;2023-04-25T12:33:26;2.07;;;1.50;;
73733;SDS011;62039;50.000;9.064;2023-04-25T12:35:53;2.30;;;1.60;;
73733;SDS011;62039;50.000;9.064;2023-04-25T12:38:21;1.90;;;1.40;;
73733;SDS011;62039;50.000;9.064;2023-04-25T12:40:49;2.10;;;1.57;;
73733;SDS011;62039;50.000;9.064;2023-04-25T12:43:16;3.20;;;1.70;;
73733;SDS011;62039;50.000;9.064;2023-04-25T12:45:42;2.50;;;1.67;;
73733;SDS011;62039;50.000;9.064;2023-04-25T12:48:09;1.63;;;1.50;;
73733;SDS011;62039;50.000;9.064;2023-04-25T12:50:39;1.77;;;1.50;;
73733;SDS011;62039;50.000;9.064;2023-04-25T12:53:06;3.00;;;1.90;;
73733;SDS011;62039;50.000;9.064;2023-04-25T12:55:33;2.43;;;1.50;;
73733;SDS011;62039;50.000;9.064;2023-04-25T12:58:00;2.63;;;1.57;;
73733;SDS011;62039;50.000;9.064;2023-04-25T13:00:27;1.93;;;1.73;;
73733;SDS011;62039;50.000;9.064;2023-04-25T13:02:54;1.77;;;1.67;;
73733;SDS011;62039;50.000;9.064;2023-04-25T13:05:24;4.30;;;1.90;;
73733;SDS011;62039;50.000;9.064;2023-04-25T13:07:54;2.40;;;1.67;;
73733;SDS011;62039;50.000;9.064;2023-04-25T13:10:21;2.67;;;1.80;;
73733;SDS011;62039;50.000;9.064;2023-04-25T13:12:48;2.37;;;1.80;;
73733;SDS011;62039;50.000;9.064;2023-04-25T13:15:15;2.43;;;1.60;;
73733;SDS011;62039;50.000;9.064;2023-04-25T13:17:43;2.30;;;1.40;;
73733;SDS011;62039;50.000;9.064;2023-04-25T13:20:10;3.30;;;1.80;;
73733;SDS011;62039;50.000;9.064;2023-04-25T13:22:37;3.47;;;2.13;;
73733;SDS011;62039;50.000;9.064;2023-04-25T13:25:07;3.23;;;1.80;;
73733;SDS011;62039;50.000;9.064;2023-04-25T13:27:36;4.47;;;1.60;;
73733;SDS011;62039;50.000;9.064;2023-04-25T13:30:04;2.60;;;1.63;;
73733;SDS011;62039;50.000;9.064;2023-04-25T13:32:32;2.80;;;1.43;;
73733;SDS011;62039;50.000;9.064;2023-04-25T13:34:59;3.17;;;1.40;;
73733;SDS011;62039;50.000;9.064;2023-04-25T13:37:29;2.83;;;1.40;;
73733;SDS011;62039;50.000;9.064;2023-04-25T13:39:56;1.80;;;1.23;;
73733;SDS011;62039;50.000;9.064;2023-04-25T13:42:26;1.47;;;1.03;;
73733;SDS011;62039;50.000;9.064;2023-04-25T13:44:53;2.63;;;1.50;;
73733;SDS011;62039;50.000;9.064;2023-04-25T13:47:20;2.70;;;1.40;;
73733;SDS011;62039;50.000;9.064;2023-04-25T13:49:47;3.27;;;1.50;;
73733;SDS011;62039;50.000;9.064;2023-04-25T13:52:14;1.63;;;1.43;;
73733;SDS011;62039;50.000;9.064;2023-04-25T13:54:41;1.60;;;1.50;;
73733;SDS011;62039;50.000;9.064;2023-04-25T13:57:08;2.23;;;1.60;;
73733;SDS011;62039;50.000;9.064;2023-04-25T13:59:37;2.90;;;2.00;;
73733;SDS011;62039;50.000;9.064;2023-04-25T14:02:04;3.53;;;2.00;;
73733;SDS011;62039;50.000;9.064;2023-04-25T14:04:31;3.10;;;1.80;;
73733;SDS011;62039;50.000;9.064;2023-04-25T14:06:58;2.43;;;1.80;;
73733;SDS011;62039;50.000;9.064;2023-04-25T14:09:25;2.80;;;1.70;;
73733;SDS011;62039;50.000;9.064;2023-04-25T14:11:52;3.23;;;1.80;;
73733;SDS011;62039;50.000;9.064;2023-04-25T14:14:20;4.87;;;2.13;;
73733;SDS011;62039;50.000;9.064;2023-04-25T14:16:50;3.20;;;2.33;;
73733;SDS011;62039;50.000;9.064;2023-04-25T14:19:17;2.57;;;1.70;;
73733;SDS011;62039;50.000;9.064;2023-04-25T14:21:47;2.37;;;1.60;;
73733;SDS011;62039;50.000;9.064;2023-04-25T14:24:14;2.70;;;2.07;;
73733;SDS011;62039;50.000;9.064;2023-04-25T14:26:41;3.67;;;1.60;;
73733;SDS011;62039;50.000;9.064;2023-04-25T14:29:09;5.73;;;2.17;;
73733;SDS011;62039;50.000;9.064;2023-04-25T14:31:37;2.30;;;1.73;;
73733;SDS011;62039;50.000;9.064;2023-04-25T14:34:07;2.37;;;1.67;;
73733;SDS011;62039;50.000;9.064;2023-04-25T14:36:35;2.87;;;2.27;;
73733;SDS011;62039;50.000;9.064;2023-04-25T14:39:03;3.30;;;1.80;;
73733;SDS011;62039;50.000;9.064;2023-04-25T14:41:30;3.50;;;2.00;;
73733;SDS011;62039;50.000;9.064;2023-04-25T14:43:57;2.23;;;1.73;;
73733;SDS011;62039;50.000;9.064;2023-04-25T14:46:24;4.93;;;2.10;;
73733;SDS011;62039;50.000;9.064;2023-04-25T14:48:51;2.13;;;1.57;;
73733;SDS011;62039;50.000;9.064;2023-04-25T14:51:20;2.70;;;1.97;;
73733;SDS011;62039;50.000;9.064;2023-04-25T14:53:47;2.83;;;1.80;;
73733;SDS011;62039;50.000;9.064;2023-04-25T14:56:14;5.30;;;2.27;;
73733;SDS011;62039;50.000;9.064;2023-04-25T14:58:41;3.03;;;2.13;;